• Join FlightAware (Why Join?)
  • Login
  • US Flag 
06:39PM EDT


 

Airport Tracker/Info


-or-


 

Live Flight TrackerFlight Track Log ✈ CCA4488 ✈ 28-Jul-2013 ✈ ZUJZ / JZH - ZUUU / CTU

Flight Track Log - Related Links

Times and Time Zones

All times are in EDT time to prevent confusion due to time zone crossing. See the CCA4488 flight status page for this flight to view local times or setup timezone preferences in your user account.

Time Position Orientation Groundspeed Altitude Reporting Facility
EDT Latitude Longitude Course Direction KTS MPH feet Rate Location/Type
08:06PM 32.5160 104.1310 178° South 430 495 24,600  Level FlightAware
08:07PM 32.4230 104.1320 179° South 428 493 24,600  Level FlightAware
08:08PM 32.3400 104.1330 179° South 429 494 24,600  Level FlightAware
08:08PM 32.2560 104.1340 179° South 430 495 24,600  Level FlightAware
08:09PM 32.1690 104.1430 175° South 430 495 24,600  Level FlightAware
08:10PM 32.0850 104.1520 175° South 434 499 24,600  Level FlightAware
08:11PM 32.0000 104.1610 175° South 427 491 24,600  Level FlightAware
08:11PM 31.9220 104.1690 175° South 426 490 24,600  Level FlightAware
08:12PM 31.8360 104.1860 170° South 427 491 24,600  Level FlightAware
08:13PM 31.7590 104.2080 166° South 427 491 24,600  Level FlightAware
08:13PM 31.6740 104.2320 166° South 425 489 24,600  Level FlightAware
08:14PM 31.6100 104.2480 168° South 431 496 24,600 -480 Level FlightAware
08:15PM 31.5240 104.2720 167° South 422 486 24,000 -1,320 Descending FlightAware
08:15PM 31.4490 104.2920 167° South 415 478 22,800 -1,980 Descending FlightAware
08:16PM 31.3730 104.3100 169° South 405 466 21,400 -2,040 Descending FlightAware
08:17PM 31.2940 104.3140 178° South 391 450 20,000 -2,040 Descending FlightAware
08:17PM 31.2210 104.3210 175° South 371 427 18,600 -1,980 Descending FlightAware
08:18PM 31.1520 104.3360 169° South 339 390 17,300 -1,800 Descending FlightAware
08:19PM 31.0940 104.3480 170° South 323 372 16,200 -2,820 Descending FlightAware
08:19PM 31.0350 104.3590 171° South 330 380 13,800 -3,120 Descending FlightAware
08:20PM 30.9670 104.3720 171° South 331 381 11,900 -1,500 Descending FlightAware
08:21PM 30.9160 104.3820 170° South 290 334 11,800 -120 Descending FlightAware
08:21PM 30.8650 104.3930 170° South 264 304 11,800 -360 Level FlightAware
08:22PM 30.8230 104.4090 162° South 244 281 11,400 -1,200 Descending FlightAware
08:23PM 30.7770 104.4270 161° South 252 290 10,200 -1,740 Descending FlightAware
08:23PM 30.7590 104.4340 162° South 249 287 9,800 -1,500 Descending FlightAware
08:24PM 30.7280 104.4460 162° South 251 289 9,100 -780 Descending FlightAware
08:24PM 30.6970 104.4570 163° South 222 255 9,100  Level FlightAware
08:25PM 30.6600 104.4520 187° South 211 243 9,100  Level FlightAware
08:25PM 30.6540 104.4360 246° West 214 246 9,100  Level FlightAware
08:25PM 30.6480 104.4070 256° West 213 245 9,100  Level FlightAware
08:26PM 30.6440 104.3820 259° West 209 241 9,100  Level FlightAware
08:26PM 30.6390 104.3580 256° West 187 215 9,100 -660 Level FlightAware
08:27PM 30.6330 104.3250 258° West 189 217 8,500 -1,200 Descending FlightAware
08:27PM 30.6310 104.3130 259° West 190 219 8,200 -960 Descending FlightAware
08:27PM 30.6260 104.2870 257° West 179 206 7,900 -960 Descending FlightAware
08:28PM 30.6210 104.2630 256° West 184 212 7,400 -1,320 Descending FlightAware
08:28PM 30.6200 104.2550 262° West 187 215 7,200 -480 Descending FlightAware
08:28PM 30.6350 104.2310 306° West 174 200 7,100 -180 Descending FlightAware
08:29PM 30.6420 104.2250 324° Northwest 174 200 7,100 -780 Level FlightAware
08:29PM 30.6610 104.2090 324° Northwest 179 206 6,600 -1,080 Descending FlightAware
08:30PM 30.6800 104.1930 324° Northwest 180 207 6,100 -480 Descending FlightAware
08:30PM 30.7010 104.1820 336° Northwest 173 199 6,200 960 Climbing FlightAware
08:31PM 30.7240 104.1880 13° North 189 217 7,000 960 Climbing FlightAware
08:31PM 30.7490 104.1970 17° North 200 230 7,100 120 Climbing FlightAware
08:31PM 30.7620 104.2020 18° North 215 247 7,100  Level FlightAware
08:32PM 30.7870 104.2110 17° North 241 277 7,100 540 Level FlightAware
08:32PM 30.8180 104.2230 18° North 256 295 7,600 900 Climbing FlightAware
08:33PM 30.8550 104.2380 19° North 271 312 8,000 720 Climbing FlightAware
08:33PM 30.8860 104.2500 18° North 270 311 8,300 1,260 Climbing FlightAware
08:33PM 30.8980 104.2600 36° Northeast 277 319 8,800 2,760 Climbing FlightAware
08:34PM 30.9100 104.2800 55° Northeast 280 322 9,600 2,760 Climbing FlightAware
08:34PM 30.9350 104.3430 65° Northeast 303 349 11,600 2,700 Climbing FlightAware
08:35PM 30.9590 104.4080 67° East 321 369 13,500 2,340 Climbing FlightAware
08:36PM 30.9830 104.4720 66° East 344 396 14,800 1,320 Climbing FlightAware
08:36PM 31.0150 104.5550 66° East 399 459 15,400 1,380 Climbing FlightAware
08:37PM 31.0440 104.6330 67° East 395 455 16,800 1,080 Climbing FlightAware
08:38PM 31.0660 104.7190 73° East 399 459 16,900 60 Climbing FlightAware
08:39PM 31.0610 104.8280 93° East 339 390 16,900 720 Level FlightAware
08:39PM 31.0650 104.9050 87° East 335 386 18,100 1,800 Climbing FlightAware
08:40PM 31.0680 104.9740 87° East 348 400 19,300 2,040 Climbing FlightAware
08:41PM 31.0710 105.0500 87° East 356 410 20,800 2,100 Climbing FlightAware
08:41PM 31.0750 105.1360 87° East 364 419 22,300 1,620 Climbing FlightAware
08:42PM 31.0770 105.1960 88° East 364 419 22,800 360 Climbing FlightAware
08:43PM 31.0810 105.2850 87° East 366 421 22,800  Level FlightAware
08:43PM 31.0850 105.3640 87° East 366 421 22,800 -360 Level FlightAware
08:44PM 31.0880 105.4510 88° East 364 419 22,300 -840 Descending FlightAware
08:45PM 31.0910 105.5300 87° East 360 414 21,700 -900 Descending FlightAware
08:46PM 31.0950 105.6140 87° East 349 402 21,100 -600 Descending FlightAware
08:46PM 31.0980 105.6870 87° East 345 397 20,900 -180 Descending FlightAware
08:47PM 31.1010 105.7540 87° East 345 397 20,900  Level FlightAware
08:47PM 31.0930 105.8220 98° East 338 389 20,900  Level FlightAware
08:48PM 31.0760 105.8450 131° Southeast 356 410 20,900  Level FlightAware
08:48PM 31.0290 105.9060 132° Southeast 377 434 20,900  Level FlightAware
08:49PM 30.9910 105.9570 131° Southeast 377 434 20,900  Level FlightAware
08:50PM 30.9560 106.0040 131° Southeast 377 434 20,900  Level FlightAware
08:50PM 30.9090 106.0670 131° Southeast 377 434 20,900  Level FlightAware
08:51PM 30.8730 106.1150 131° Southeast 377 434 20,900 -180 Level FlightAware
08:52PM 30.7860 106.2190 134° Southeast 372 428 20,700 -180 Descending FlightAware
08:53PM 30.7200 106.2870 138° Southeast 369 425 20,700 -60 Level FlightAware
08:54PM 30.6600 106.3540 136° Southeast 368 423 20,600 -60 Descending FlightAware
08:54PM 30.6100 106.4100 136° Southeast 368 423 20,600  Level FlightAware
08:55PM 30.5720 106.4520 136° Southeast 368 423 20,600  Level FlightAware
08:56PM 30.5220 106.5080 136° Southeast 368 423 20,600  Level FlightAware
08:56PM 30.4850 106.5500 136° Southeast 368 423 20,600  Level FlightAware
08:59PM 30.4926 106.3812 273° West  Level Estimated
09:00PM 30.4962 106.3015 273° West  Level Estimated
09:01PM 30.4997 106.2217 273° West  Level Estimated
09:02PM 30.5031 106.1420 273° West  Level Estimated
09:03PM 30.5065 106.0622 273° West  Level Estimated
09:04PM 30.5098 105.9825 273° West  Level Estimated
09:05PM 30.5131 105.9027 273° West  Level Estimated
09:06PM 30.5164 105.8229 273° West  Level Estimated
09:07PM 30.5196 105.7431 273° West  Level Estimated
09:08PM 30.5227 105.6633 273° West  Level Estimated
09:09PM 30.5258 105.5835 273° West  Level Estimated
09:10PM 30.5288 105.5037 273° West  Level Estimated
09:11PM 30.5318 105.4239 273° West  Level Estimated
09:12PM 30.5348 105.3441 272° West  Level Estimated
09:13PM 30.5377 105.2643 272° West  Level Estimated
09:14PM 30.5405 105.1845 272° West  Level Estimated
09:15PM 30.5433 105.1047 272° West  Level Estimated
09:16PM 30.5461 105.0248 272° West  Level Estimated
09:17PM 30.5488 104.9450 272° West  Level Estimated
09:18PM 30.5515 104.8652 272° West  Level Estimated
09:19PM 30.5541 104.7853 272° West  Level Estimated
09:20PM 30.5566 104.7055 272° West  Level Estimated
09:21PM 30.5592 104.6256 272° West  Level Estimated
09:22PM 30.5616 104.5458 272° West  Level Estimated
09:23PM 30.5640 104.4659 272° West  Level Estimated
09:24PM 30.5664 104.3861 272° West  Level Estimated
09:25PM 30.5687 104.3062 272° West  Level Estimated
09:26PM 30.5710 104.2263 272° West  Level Estimated
11:28PM 30.5440 103.9460 272° West 26 30  Level FlightAware
11:28PM 30.5470 103.9470 16° North 27 31  Level FlightAware
11:28PM 30.5480 103.9480 41° Northeast 34 39  Level FlightAware
11:29PM 30.5490 103.9460 300° West 16 18  Level FlightAware
11:29PM 30.5500 103.9460 360° North 19 22  Level FlightAware
11:29PM 30.5530 103.9450 344° North 24 28  Level FlightAware
11:30PM 30.5560 103.9430 330° Northwest 27 31  Level FlightAware
11:30PM 30.5580 103.9420 337° Northwest 19 22  Level FlightAware
11:31PM 30.5610 103.9430 16° North 20 23  Level FlightAware
11:32PM 30.5650 103.9450 23° Northeast 17 20  Level FlightAware
11:32PM 30.5670 103.9460 23° Northeast 11 13  Level FlightAware
11:36PM 30.5680 103.9510 77° East 26 30  Level FlightAware
11:36PM 30.5660 103.9550 120° Southeast 26 30  Level FlightAware
11:37PM 30.5650 103.9540 221° Southwest 31 36  Level FlightAware
11:37PM 30.5630 103.9540 180° South 22 25  Level FlightAware